createdAt,value
2018-05-11T00:00:19.301Z,10.50
2018-05-11T00:02:46.872Z,10.50
2018-05-11T00:05:14.412Z,10.40
2018-05-11T00:07:41.986Z,10.40
2018-05-11T00:10:09.540Z,10.40
2018-05-11T00:12:37.105Z,10.40
2018-05-11T00:15:04.681Z,10.40
2018-05-11T00:17:32.245Z,10.30
2018-05-11T00:19:59.794Z,10.10
2018-05-11T00:22:27.384Z,10.30
2018-05-11T00:24:54.933Z,10.20
2018-05-11T00:27:22.510Z,10.10
2018-05-11T00:29:50.052Z,9.90
2018-05-11T00:32:17.622Z,9.90
2018-05-11T00:34:45.166Z,9.90
2018-05-11T00:37:12.733Z,9.80
2018-05-11T00:39:40.279Z,9.90
2018-05-11T00:42:07.850Z,9.90
2018-05-11T00:44:35.397Z,9.90
2018-05-11T00:47:03.006Z,9.90
2018-05-11T00:49:30.554Z,9.80
2018-05-11T00:51:58.121Z,9.80
2018-05-11T00:54:25.677Z,9.80
2018-05-11T00:56:53.245Z,9.70
2018-05-11T00:59:20.793Z,9.70
2018-05-11T01:01:48.361Z,9.70
2018-05-11T01:04:15.905Z,9.70
2018-05-11T01:06:44.218Z,9.60
2018-05-11T01:09:11.785Z,9.60
2018-05-11T01:11:39.334Z,9.50
2018-05-11T01:14:06.901Z,9.50
2018-05-11T01:16:34.446Z,9.50
2018-05-11T01:19:02.016Z,9.60
2018-05-11T01:21:29.566Z,9.60
2018-05-11T01:23:57.138Z,9.50
2018-05-11T01:26:24.686Z,9.30
2018-05-11T01:28:52.250Z,9.30
2018-05-11T01:31:19.793Z,9.30
2018-05-11T01:33:48.134Z,9.20
2018-05-11T01:36:15.678Z,9.10
2018-05-11T01:38:43.250Z,9.20
2018-05-11T01:41:11.578Z,9.10
2018-05-11T01:43:39.142Z,9.10
2018-05-11T01:46:06.690Z,9.00
2018-05-11T01:48:34.252Z,9.10
2018-05-11T01:51:01.979Z,9.10
2018-05-11T01:53:29.551Z,9.10
2018-05-11T01:55:57.097Z,9.20
2018-05-11T01:58:25.433Z,9.00
2018-05-11T02:00:52.979Z,9.00
2018-05-11T02:03:21.306Z,9.10
2018-05-11T02:05:48.850Z,9.10
2018-05-11T02:08:17.184Z,9.00
2018-05-11T02:10:44.731Z,8.90
2018-05-11T02:13:12.298Z,9.00
2018-05-11T02:15:39.845Z,9.00
2018-05-11T02:18:07.389Z,8.90
2018-05-11T02:20:34.961Z,8.80
2018-05-11T02:23:02.514Z,8.80
2018-05-11T02:25:30.090Z,8.80
2018-05-11T02:27:57.634Z,8.70
2018-05-11T02:30:25.202Z,8.80
2018-05-11T02:32:52.751Z,8.80
2018-05-11T02:35:20.321Z,8.70
2018-05-11T02:37:47.861Z,8.70
2018-05-11T02:40:15.439Z,8.60
2018-05-11T02:42:42.994Z,8.50
2018-05-11T02:45:10.568Z,8.50
2018-05-11T02:47:38.213Z,8.50
2018-05-11T02:50:05.781Z,8.60
2018-05-11T02:52:33.332Z,8.70
2018-05-11T02:55:00.898Z,8.60
2018-05-11T02:57:28.445Z,8.50
2018-05-11T02:59:56.009Z,8.50
2018-05-11T03:02:23.548Z,8.50
2018-05-11T03:04:51.141Z,8.50
2018-05-11T03:07:18.698Z,8.50
2018-05-11T03:09:46.265Z,8.50
2018-05-11T03:12:13.813Z,8.40
2018-05-11T03:14:41.381Z,8.40
2018-05-11T03:17:08.976Z,8.30
2018-05-11T03:19:36.556Z,8.40
2018-05-11T03:22:04.103Z,8.40
2018-05-11T03:24:32.445Z,8.40
2018-05-11T03:26:59.985Z,8.30
2018-05-11T03:29:27.529Z,8.40
2018-05-11T03:31:55.103Z,8.40
2018-05-11T03:34:22.655Z,8.30
2018-05-11T03:36:50.225Z,8.20
2018-05-11T03:39:17.773Z,8.20
2018-05-11T03:41:45.341Z,8.20
2018-05-11T03:44:12.885Z,8.30
2018-05-11T03:46:40.448Z,8.30
2018-05-11T03:49:08.409Z,8.20
2018-05-11T03:51:35.978Z,8.20
2018-05-11T03:54:03.836Z,8.20
2018-05-11T03:56:31.401Z,8.10
2018-05-11T03:58:58.946Z,8.00
2018-05-11T04:01:38.358Z,8.10
2018-05-11T04:04:17.621Z,8.10
2018-05-11T04:06:56.893Z,8.10
2018-05-11T04:09:24.438Z,8.00
2018-05-11T04:11:52.005Z,8.00
2018-05-11T04:14:19.549Z,8.00
2018-05-11T04:16:47.121Z,8.00
2018-05-11T04:19:14.671Z,8.00
2018-05-11T04:21:42.251Z,8.10
2018-05-11T04:24:09.798Z,8.20
2018-05-11T04:26:37.376Z,8.10
2018-05-11T04:29:05.692Z,8.10
2018-05-11T04:31:33.259Z,8.10
2018-05-11T04:34:00.918Z,8.20
2018-05-11T04:36:28.494Z,8.20
2018-05-11T04:38:56.046Z,8.30
2018-05-11T04:41:23.609Z,8.30
2018-05-11T04:43:53.107Z,8.30
2018-05-11T04:46:20.797Z,8.30
2018-05-11T04:48:48.400Z,8.40
2018-05-11T04:51:15.944Z,8.40
2018-05-11T04:53:43.514Z,8.50
2018-05-11T04:56:11.066Z,8.60
2018-05-11T04:58:39.396Z,8.60
2018-05-11T05:01:06.941Z,8.60
2018-05-11T05:03:34.500Z,8.60
2018-05-11T05:06:02.081Z,8.80
2018-05-11T05:08:29.657Z,8.80
2018-05-11T05:10:57.205Z,8.80
2018-05-11T05:13:24.768Z,8.90
2018-05-11T05:15:52.304Z,9.00
2018-05-11T05:18:19.869Z,9.00
2018-05-11T05:20:48.173Z,9.10
2018-05-11T05:23:15.749Z,9.10
2018-05-11T05:25:43.289Z,9.20
2018-05-11T05:28:11.625Z,9.30
2018-05-11T05:30:39.168Z,9.30
2018-05-11T05:33:06.756Z,9.50
2018-05-11T05:35:34.297Z,9.80
2018-05-11T05:38:01.882Z,10.20
2018-05-11T05:40:29.430Z,10.40
2018-05-11T05:42:57.005Z,10.90
2018-05-11T05:45:24.557Z,11.50
2018-05-11T05:47:52.161Z,12.30
2018-05-11T05:50:19.713Z,13.00
2018-05-11T05:52:48.858Z,14.10
2018-05-11T05:55:16.497Z,14.10
2018-05-11T05:57:44.071Z,14.40
2018-05-11T06:00:11.625Z,14.90
2018-05-11T06:02:39.199Z,15.40
2018-05-11T06:05:06.755Z,15.90
2018-05-11T06:07:35.089Z,16.60
2018-05-11T06:10:02.773Z,16.60
2018-05-11T06:12:30.357Z,17.00
2018-05-11T06:14:57.905Z,17.50
2018-05-11T06:17:25.457Z,17.90
2018-05-11T06:19:53.031Z,18.30
2018-05-11T06:22:20.584Z,18.70
2018-05-11T06:24:48.191Z,19.10
2018-05-11T06:27:15.729Z,19.40
2018-05-11T06:29:43.314Z,19.70
2018-05-11T06:32:11.897Z,20.50
2018-05-11T06:34:39.469Z,20.50
2018-05-11T06:37:07.021Z,20.90
2018-05-11T06:39:34.602Z,21.10
2018-05-11T06:42:02.160Z,21.40
2018-05-11T06:44:29.729Z,21.70
2018-05-11T06:46:57.271Z,21.70
2018-05-11T06:49:24.846Z,22.00
2018-05-11T06:51:52.392Z,22.40
2018-05-11T06:54:19.956Z,22.70
2018-05-11T06:56:47.509Z,22.90
2018-05-11T06:59:15.081Z,23.30
2018-05-11T07:01:42.627Z,23.40
2018-05-11T07:04:10.199Z,23.60
2018-05-11T07:06:37.744Z,23.80
2018-05-11T07:09:06.338Z,24.00
2018-05-11T07:11:33.891Z,24.20
2018-05-11T07:14:01.445Z,24.50
2018-05-11T07:16:29.023Z,25.00
2018-05-11T07:18:56.578Z,25.10
2018-05-11T07:21:24.913Z,25.70
2018-05-11T07:23:53.231Z,26.10
2018-05-11T07:26:20.805Z,26.10
2018-05-11T07:28:48.353Z,25.80
2018-05-11T07:31:15.925Z,26.20
2018-05-11T07:33:43.478Z,26.60
2018-05-11T07:36:11.090Z,27.00
2018-05-11T07:38:38.646Z,27.20
2018-05-11T07:41:06.264Z,27.20
2018-05-11T07:43:33.814Z,27.40
2018-05-11T07:46:01.398Z,27.80
2018-05-11T07:48:28.961Z,27.80
2018-05-11T07:50:57.296Z,28.60
2018-05-11T07:53:24.846Z,28.60
2018-05-11T07:55:52.422Z,28.90
2018-05-11T07:58:20.757Z,29.30
2018-05-11T08:00:48.345Z,29.20
2018-05-11T08:03:15.898Z,29.40
2018-05-11T08:05:43.469Z,29.60
2018-05-11T08:08:11.022Z,29.60
2018-05-11T08:10:38.594Z,29.40
2018-05-11T08:13:06.147Z,29.50
2018-05-11T08:15:33.726Z,30.10
2018-05-11T08:18:01.299Z,30.20
2018-05-11T08:20:29.651Z,30.50
2018-05-11T08:22:58.124Z,30.40
2018-05-11T08:25:25.710Z,30.80
2018-05-11T08:27:53.286Z,31.00
2018-05-11T08:30:21.609Z,31.20
2018-05-11T08:32:49.190Z,31.20
2018-05-11T08:35:16.748Z,31.40
2018-05-11T08:37:44.330Z,31.40
2018-05-11T08:40:11.876Z,31.50
2018-05-11T08:42:39.456Z,31.60
2018-05-11T08:45:07.782Z,31.60
2018-05-11T08:47:35.353Z,31.60
2018-05-11T08:50:02.910Z,31.80
2018-05-11T08:52:30.505Z,31.80
2018-05-11T08:54:58.834Z,30.50
2018-05-11T08:57:26.409Z,30.50
2018-05-11T08:59:53.965Z,31.00
2018-05-11T09:02:21.555Z,31.20
2018-05-11T09:04:49.122Z,30.80
2018-05-11T09:07:17.479Z,30.90
2018-05-11T09:09:45.042Z,31.00
2018-05-11T09:12:12.628Z,30.20
2018-05-11T09:14:40.950Z,31.30
2018-05-11T09:17:08.538Z,31.30
2018-05-11T09:19:36.088Z,31.90
2018-05-11T09:22:03.672Z,32.40
2018-05-11T09:24:31.998Z,32.00
2018-05-11T09:26:59.577Z,32.00
2018-05-11T09:29:27.130Z,31.80
2018-05-11T09:31:54.737Z,31.90
2018-05-11T09:34:23.065Z,31.80
2018-05-11T09:36:50.617Z,31.70
2018-05-11T09:39:18.194Z,30.70
2018-05-11T09:41:45.749Z,30.90
2018-05-11T09:44:13.332Z,30.30
2018-05-11T09:46:40.884Z,29.90
2018-05-11T09:49:08.466Z,28.80
2018-05-11T09:51:36.026Z,29.10
2018-05-11T09:54:03.601Z,29.50
2018-05-11T09:56:31.157Z,29.60
2018-05-11T09:58:58.725Z,29.90
2018-05-11T10:01:26.277Z,29.90
2018-05-11T10:03:53.853Z,29.80
2018-05-11T10:06:21.409Z,29.80
2018-05-11T10:08:48.980Z,29.90
2018-05-11T10:11:16.542Z,30.10
2018-05-11T10:13:44.131Z,30.20
2018-05-11T10:16:12.461Z,29.90
2018-05-11T10:18:40.040Z,29.90
2018-05-11T10:21:07.597Z,29.90
2018-05-11T10:23:35.171Z,28.90
2018-05-11T10:26:02.763Z,28.90
2018-05-11T10:28:31.101Z,27.80
2018-05-11T10:30:58.657Z,27.80
2018-05-11T10:33:26.228Z,28.00
2018-05-11T10:35:53.781Z,28.20
2018-05-11T10:38:21.369Z,27.50
2018-05-11T10:40:49.686Z,27.80
2018-05-11T10:43:17.238Z,27.80
2018-05-11T10:45:44.817Z,27.90
2018-05-11T10:48:12.365Z,27.30
2018-05-11T10:50:39.943Z,26.50
2018-05-11T10:53:07.497Z,26.20
2018-05-11T10:55:35.090Z,26.40
2018-05-11T10:58:02.687Z,26.80
2018-05-11T11:00:30.270Z,26.50
2018-05-11T11:02:57.838Z,26.60
2018-05-11T11:05:25.410Z,26.50
2018-05-11T11:07:52.969Z,26.40
2018-05-11T11:10:20.547Z,26.40
2018-05-11T11:12:48.113Z,26.20
2018-05-11T11:15:16.462Z,25.50
2018-05-11T11:17:44.012Z,25.50
2018-05-11T11:20:11.646Z,25.40
2018-05-11T11:22:39.201Z,25.10
2018-05-11T11:25:06.780Z,25.20
2018-05-11T11:27:34.347Z,24.80
2018-05-11T11:30:02.202Z,24.60
2018-05-11T11:32:29.761Z,24.70
2018-05-11T11:34:57.337Z,24.70
2018-05-11T11:37:24.893Z,24.80
2018-05-11T11:39:52.518Z,24.50
2018-05-11T11:42:20.071Z,24.50
2018-05-11T11:44:47.641Z,24.50
2018-05-11T11:47:15.189Z,24.40
2018-05-11T11:49:42.782Z,24.30
2018-05-11T11:52:10.338Z,24.30
2018-05-11T11:54:37.893Z,24.50
2018-05-11T11:57:05.475Z,24.60
2018-05-11T11:59:33.021Z,24.40
2018-05-11T12:02:00.708Z,24.40
2018-05-11T12:04:29.010Z,24.50
2018-05-11T12:06:56.593Z,24.50
2018-05-11T12:09:24.146Z,24.50
2018-05-11T12:11:51.729Z,24.60
2018-05-11T12:14:19.295Z,24.40
2018-05-11T12:16:46.877Z,24.20
2018-05-11T12:19:14.434Z,24.30
2018-05-11T12:21:42.009Z,24.30
2018-05-11T12:24:09.562Z,24.30
2018-05-11T12:26:37.145Z,24.30
2018-05-11T12:29:04.808Z,24.30
2018-05-11T12:31:32.596Z,24.20
2018-05-11T12:34:00.151Z,24.30
2018-05-11T12:36:27.726Z,24.40
2018-05-11T12:38:55.273Z,24.50
2018-05-11T12:41:22.849Z,24.50
2018-05-11T12:43:51.353Z,24.40
2018-05-11T12:46:18.930Z,24.50
2018-05-11T12:48:47.545Z,24.10
2018-05-11T12:51:15.125Z,24.10
2018-05-11T12:53:42.671Z,24.00
2018-05-11T12:56:10.245Z,23.80
2018-05-11T12:58:37.797Z,23.90
2018-05-11T13:01:05.346Z,23.90
2018-05-11T13:03:32.925Z,24.00
2018-05-11T13:06:00.482Z,24.30
2018-05-11T13:08:28.066Z,24.40
2018-05-11T13:10:55.621Z,24.30
2018-05-11T13:13:23.203Z,24.10
2018-05-11T13:15:50.758Z,24.00
2018-05-11T13:18:19.106Z,24.10
2018-05-11T13:20:46.698Z,24.10
2018-05-11T13:23:14.262Z,24.20
2018-05-11T13:25:41.811Z,24.00
2018-05-11T13:28:10.154Z,24.20
2018-05-11T13:30:37.699Z,24.20
2018-05-11T13:33:05.289Z,24.30
2018-05-11T13:35:32.842Z,24.40
2018-05-11T13:38:00.410Z,24.50
2018-05-11T13:40:27.963Z,24.40
2018-05-11T13:42:55.549Z,24.30
2018-05-11T13:45:23.868Z,23.80
2018-05-11T13:47:51.460Z,23.70
2018-05-11T13:50:19.022Z,23.60
2018-05-11T13:52:46.600Z,23.60
2018-05-11T13:55:14.908Z,23.90
2018-05-11T13:57:42.496Z,23.90
2018-05-11T14:00:10.055Z,23.80
2018-05-11T14:02:38.394Z,24.00
2018-05-11T14:05:05.945Z,24.00
2018-05-11T14:07:33.534Z,24.20
2018-05-11T14:10:01.089Z,24.20
2018-05-11T14:12:28.750Z,23.70
2018-05-11T14:14:56.327Z,24.00
2018-05-11T14:17:23.881Z,23.90
2018-05-11T14:19:51.456Z,23.90
2018-05-11T14:22:19.006Z,23.90
2018-05-11T14:24:46.581Z,23.70
2018-05-11T14:27:14.133Z,23.50
2018-05-11T14:29:41.718Z,23.50
2018-05-11T14:32:09.269Z,23.70
2018-05-11T14:34:36.845Z,23.80
2018-05-11T14:37:05.316Z,23.90
2018-05-11T14:39:32.884Z,23.90
2018-05-11T14:42:01.202Z,23.70
2018-05-11T14:44:28.936Z,23.60
2018-05-11T14:46:56.494Z,23.50
2018-05-11T14:49:24.077Z,23.30
2018-05-11T14:51:51.625Z,23.30
2018-05-11T14:54:19.201Z,23.40
2018-05-11T14:56:46.747Z,23.40
2018-05-11T14:59:14.322Z,23.40
2018-05-11T15:01:41.878Z,23.50
2018-05-11T15:04:09.484Z,23.60
2018-05-11T15:06:37.061Z,23.60
2018-05-11T15:09:05.397Z,23.50
2018-05-11T15:11:32.953Z,23.50
2018-05-11T15:14:00.533Z,23.50
2018-05-11T15:16:28.859Z,23.50
2018-05-11T15:18:56.433Z,23.50
2018-05-11T15:21:23.995Z,23.50
2018-05-11T15:23:51.569Z,23.60
2018-05-11T15:26:19.117Z,23.60
2018-05-11T15:28:46.683Z,23.50
2018-05-11T15:31:14.350Z,23.60
2018-05-11T15:33:41.833Z,23.70
2018-05-11T15:36:10.164Z,23.70
2018-05-11T15:38:37.713Z,23.70
2018-05-11T15:41:05.281Z,23.70
2018-05-11T15:43:32.832Z,23.60
2018-05-11T15:46:00.410Z,23.70
2018-05-11T15:48:27.962Z,23.70
2018-05-11T15:50:55.548Z,23.50
2018-05-11T15:53:23.105Z,23.40
2018-05-11T15:55:50.863Z,23.40
2018-05-11T15:58:18.434Z,23.40
2018-05-11T16:00:46.018Z,23.30
2018-05-11T16:03:13.579Z,23.40
2018-05-11T16:05:41.161Z,23.10
2018-05-11T16:08:08.923Z,23.10
2018-05-11T16:10:36.703Z,23.20
2018-05-11T16:13:04.254Z,23.30
2018-05-11T16:15:31.829Z,23.20
2018-05-11T16:18:00.150Z,23.20
2018-05-11T16:20:28.507Z,22.90
2018-05-11T16:22:56.065Z,22.90
2018-05-11T16:25:23.647Z,23.00
2018-05-11T16:27:51.971Z,22.70
2018-05-11T16:30:19.546Z,22.70
2018-05-11T16:32:47.101Z,22.90
2018-05-11T16:35:14.687Z,22.80
2018-05-11T16:37:43.008Z,22.80
2018-05-11T16:40:10.581Z,22.80
2018-05-11T16:42:38.272Z,22.70
2018-05-11T16:45:05.834Z,22.60
2018-05-11T16:47:33.412Z,22.50
2018-05-11T16:50:00.995Z,22.60
2018-05-11T16:52:28.563Z,22.60
2018-05-11T16:54:56.105Z,22.60
2018-05-11T16:57:23.949Z,22.60
2018-05-11T16:59:52.265Z,22.60
2018-05-11T17:02:19.846Z,22.60
2018-05-11T17:04:47.460Z,22.50
2018-05-11T17:07:15.050Z,22.50
2018-05-11T17:09:42.601Z,22.40
2018-05-11T17:12:10.174Z,22.40
2018-05-11T17:14:37.895Z,22.30
2018-05-11T17:17:06.383Z,22.30
2018-05-11T17:19:34.044Z,22.20
2018-05-11T17:22:01.624Z,22.10
2018-05-11T17:24:29.174Z,22.20
2018-05-11T17:26:56.836Z,22.00
2018-05-11T17:29:24.418Z,22.00
2018-05-11T17:31:51.987Z,21.90
2018-05-11T17:34:19.780Z,22.10
2018-05-11T17:36:48.308Z,21.80
2018-05-11T17:39:16.906Z,21.60
2018-05-11T17:41:44.522Z,21.60
2018-05-11T17:44:12.222Z,21.70
2018-05-11T17:46:39.773Z,21.60
2018-05-11T17:49:07.365Z,21.60
2018-05-11T17:51:34.912Z,21.50
2018-05-11T17:54:03.198Z,21.50
2018-05-11T17:56:30.750Z,21.50
2018-05-11T17:58:58.354Z,21.50
2018-05-11T18:01:27.475Z,21.30
2018-05-11T18:03:55.056Z,21.30
2018-05-11T18:06:22.642Z,21.30
2018-05-11T18:08:50.227Z,21.30
2018-05-11T18:11:17.780Z,21.20
2018-05-11T18:13:46.241Z,21.10
2018-05-11T18:16:13.803Z,21.10
2018-05-11T18:18:41.378Z,21.10
2018-05-11T18:21:09.698Z,20.80
2018-05-11T18:23:37.277Z,20.80
2018-05-11T18:26:04.878Z,20.90
2018-05-11T18:28:32.624Z,20.90
2018-05-11T18:31:00.264Z,20.80
2018-05-11T18:33:27.855Z,20.80
2018-05-11T18:35:56.265Z,20.70
2018-05-11T18:38:23.849Z,20.70
2018-05-11T18:40:51.397Z,20.60
2018-05-11T18:43:18.970Z,20.60
2018-05-11T18:45:46.525Z,20.50
2018-05-11T18:48:14.795Z,20.40
2018-05-11T18:50:42.345Z,20.30
2018-05-11T18:53:10.086Z,20.30
2018-05-11T18:55:37.477Z,20.20
2018-05-11T18:58:05.034Z,20.10
2018-05-11T19:00:32.608Z,20.00
2018-05-11T19:03:00.161Z,19.90
2018-05-11T19:05:27.740Z,19.90
2018-05-11T19:07:55.290Z,19.80
2018-05-11T19:10:22.872Z,19.80
2018-05-11T19:12:51.193Z,19.80
2018-05-11T19:15:18.765Z,19.70
2018-05-11T19:17:46.322Z,19.70
2018-05-11T19:20:14.685Z,19.60
2018-05-11T19:22:42.257Z,19.60
2018-05-11T19:25:09.829Z,19.50
2018-05-11T19:27:37.378Z,19.40
2018-05-11T19:30:05.372Z,19.30
2018-05-11T19:32:32.971Z,19.30
2018-05-11T19:35:00.542Z,19.10
2018-05-11T19:37:28.093Z,19.00
2018-05-11T19:39:55.771Z,19.00
2018-05-11T19:42:23.539Z,18.80
2018-05-11T19:44:51.062Z,18.80
2018-05-11T19:47:18.778Z,18.70
2018-05-11T19:49:46.348Z,18.70
2018-05-11T19:52:13.905Z,18.60
2018-05-11T19:54:41.481Z,18.50
2018-05-11T19:57:09.281Z,18.60
2018-05-11T19:59:37.254Z,18.40
2018-05-11T20:02:04.885Z,18.30
2018-05-11T20:04:32.457Z,18.10
2018-05-11T20:07:00.049Z,18.10
2018-05-11T20:09:27.601Z,18.00
2018-05-11T20:11:55.189Z,18.00
2018-05-11T20:14:22.793Z,17.80
2018-05-11T20:16:50.376Z,17.70
2018-05-11T20:19:17.932Z,17.70
2018-05-11T20:21:45.509Z,17.60
2018-05-11T20:24:13.058Z,17.70
2018-05-11T20:26:40.627Z,17.40
2018-05-11T20:29:08.176Z,17.20
2018-05-11T20:31:35.758Z,17.30
2018-05-11T20:34:04.053Z,17.10
2018-05-11T20:36:31.629Z,17.10
2018-05-11T20:38:59.187Z,17.10
2018-05-11T20:41:26.787Z,17.10
2018-05-11T20:43:55.280Z,17.00
2018-05-11T20:46:22.861Z,16.90
2018-05-11T20:48:50.421Z,16.90
2018-05-11T20:51:18.006Z,16.70
2018-05-11T20:53:45.565Z,16.80
2018-05-11T20:56:13.914Z,16.60
2018-05-11T20:58:41.475Z,16.60
2018-05-11T21:01:09.049Z,16.40
2018-05-11T21:03:38.225Z,16.50
2018-05-11T21:06:06.486Z,16.50
2018-05-11T21:08:34.043Z,16.20
2018-05-11T21:11:01.638Z,16.20
2018-05-11T21:13:29.190Z,16.10
2018-05-11T21:15:56.785Z,16.30
2018-05-11T21:18:24.342Z,16.30
2018-05-11T21:20:51.902Z,16.00
2018-05-11T21:23:19.478Z,16.00
2018-05-11T21:25:48.066Z,16.00
2018-05-11T21:28:15.646Z,15.90
2018-05-11T21:30:43.201Z,15.90
2018-05-11T21:33:10.789Z,15.80
2018-05-11T21:35:38.344Z,15.80
2018-05-11T21:38:05.913Z,15.70
2018-05-11T21:40:33.476Z,15.70
2018-05-11T21:43:01.058Z,15.70
2018-05-11T21:45:28.614Z,15.60
2018-05-11T21:47:56.192Z,15.50
2018-05-11T21:50:24.454Z,15.40
2018-05-11T21:52:52.034Z,15.50
2018-05-11T21:55:20.616Z,15.50
2018-05-11T21:57:48.262Z,15.40
2018-05-11T22:00:15.808Z,15.50
2018-05-11T22:02:43.401Z,15.30
2018-05-11T22:05:10.954Z,15.10
2018-05-11T22:07:38.535Z,15.20
2018-05-11T22:10:06.101Z,15.20
2018-05-11T22:12:34.438Z,15.00
2018-05-11T22:15:02.000Z,14.90
2018-05-11T22:17:29.582Z,15.00
2018-05-11T22:19:57.137Z,14.90
2018-05-11T22:22:25.472Z,14.90
2018-05-11T22:24:53.018Z,14.90
2018-05-11T22:27:20.593Z,14.80
2018-05-11T22:29:48.154Z,14.80
2018-05-11T22:32:15.722Z,14.80
2018-05-11T22:34:43.273Z,14.80
2018-05-11T22:37:10.825Z,14.80
2018-05-11T22:39:38.396Z,14.90
2018-05-11T22:42:06.004Z,14.80
2018-05-11T22:44:33.549Z,14.60
2018-05-11T22:47:01.095Z,14.40
2018-05-11T22:49:28.725Z,14.40
2018-05-11T22:51:56.236Z,14.60
2018-05-11T22:54:23.813Z,14.50
2018-05-11T22:56:51.364Z,14.40
2018-05-11T22:59:18.942Z,14.40
2018-05-11T23:01:46.491Z,14.40
2018-05-11T23:04:14.077Z,14.40
2018-05-11T23:06:41.636Z,14.30
2018-05-11T23:09:09.214Z,14.40
2018-05-11T23:11:36.760Z,14.30
2018-05-11T23:14:04.341Z,14.20
2018-05-11T23:16:31.897Z,14.30
2018-05-11T23:18:59.470Z,14.30
2018-05-11T23:21:27.026Z,14.20
2018-05-11T23:23:54.614Z,14.00
2018-05-11T23:26:22.160Z,14.10
2018-05-11T23:28:49.724Z,14.00
2018-05-11T23:31:17.283Z,14.00
2018-05-11T23:33:44.852Z,14.10
2018-05-11T23:36:12.402Z,14.00
2018-05-11T23:38:39.983Z,13.90
2018-05-11T23:41:08.305Z,13.90
2018-05-11T23:43:35.889Z,13.80
2018-05-11T23:46:04.209Z,13.70
2018-05-11T23:48:31.776Z,13.70
2018-05-11T23:50:59.329Z,13.70
2018-05-11T23:53:26.942Z,13.80
2018-05-11T23:55:54.500Z,13.80
2018-05-11T23:58:22.099Z,13.60
